createdAt,value
2018-08-06T00:00:41.096Z,101323.88
2018-08-06T00:02:46.156Z,101328.56
2018-08-06T00:04:51.419Z,101322.53
2018-08-06T00:06:56.715Z,101322.45
2018-08-06T00:09:01.995Z,101318.17
2018-08-06T00:11:07.447Z,101321.57
2018-08-06T00:13:12.790Z,101317.30
2018-08-06T00:15:18.017Z,101310.68
2018-08-06T00:17:23.049Z,101315.44
2018-08-06T00:19:28.244Z,101309.30
2018-08-06T00:21:33.417Z,101309.24
2018-08-06T00:23:38.547Z,101241.75
2018-08-06T00:25:43.672Z,101305.70
2018-08-06T00:27:48.885Z,101225.47
2018-08-06T00:29:53.910Z,101295.19
2018-08-06T00:31:59.916Z,101299.91
2018-08-06T00:34:05.152Z,101287.75
2018-08-06T00:36:10.024Z,101294.65
2018-08-06T00:38:15.509Z,101296.86
2018-08-06T00:40:21.830Z,101297.67
2018-08-06T00:42:26.961Z,101288.52
2018-08-06T00:44:31.846Z,101287.24
2018-08-06T00:46:37.007Z,101279.41
2018-08-06T00:48:42.196Z,101285.88
2018-08-06T00:50:47.406Z,101282.41
2018-08-06T00:52:52.692Z,101279.27
2018-08-06T00:54:57.657Z,101277.45
2018-08-06T00:57:02.709Z,101271.80
2018-08-06T00:59:08.338Z,101267.78
2018-08-06T01:01:13.498Z,101267.70
2018-08-06T01:03:18.556Z,101268.61
2018-08-06T01:05:23.610Z,101265.55
2018-08-06T01:07:28.772Z,101262.55
2018-08-06T01:09:34.178Z,101258.20
2018-08-06T01:11:39.551Z,101259.11
2018-08-06T01:13:44.824Z,101243.73
2018-08-06T01:15:49.791Z,101258.11
2018-08-06T01:17:54.958Z,101255.48
2018-08-06T01:20:00.937Z,101255.88
2018-08-06T01:22:06.129Z,101248.44
2018-08-06T01:24:11.209Z,101243.13
2018-08-06T01:26:16.375Z,101253.13
2018-08-06T01:28:21.386Z,101253.38
2018-08-06T01:30:26.575Z,101251.98
2018-08-06T01:32:31.757Z,101165.70
2018-08-06T01:34:36.864Z,101240.98
2018-08-06T01:36:42.568Z,101236.59
2018-08-06T01:38:47.780Z,101233.42
2018-08-06T01:40:52.987Z,101230.82
2018-08-06T01:42:59.630Z,101233.91
2018-08-06T01:45:05.118Z,101231.67
2018-08-06T01:47:10.182Z,101227.67
2018-08-06T01:49:15.447Z,101230.73
2018-08-06T01:51:20.634Z,101232.03
2018-08-06T01:53:25.852Z,101227.23
2018-08-06T01:55:31.956Z,101229.34
2018-08-06T01:57:37.138Z,101218.81
2018-08-06T01:59:42.501Z,101219.34
2018-08-06T02:01:47.757Z,101226.64
2018-08-06T02:03:53.229Z,101217.45
2018-08-06T02:05:58.430Z,101222.63
2018-08-06T02:08:03.446Z,101221.29
2018-08-06T02:10:13.321Z,101138.77
2018-08-06T02:12:18.559Z,101217.27
2018-08-06T02:14:24.110Z,101202.45
2018-08-06T02:16:29.241Z,101206.55
2018-08-06T02:18:34.508Z,101205.58
2018-08-06T02:20:39.321Z,101201.73
2018-08-06T02:22:44.845Z,101205.97
2018-08-06T02:24:49.951Z,101198.14
2018-08-06T02:26:55.060Z,101205.97
2018-08-06T02:29:00.300Z,101200.28
2018-08-06T02:31:05.733Z,101199.34
2018-08-06T02:33:11.074Z,101201.55
2018-08-06T02:35:18.033Z,101202.42
2018-08-06T02:37:23.929Z,101201.88
2018-08-06T02:39:29.166Z,101197.91
2018-08-06T02:41:34.176Z,101197.91
2018-08-06T02:43:39.431Z,101188.86
2018-08-06T02:45:44.589Z,101189.20
2018-08-06T02:47:49.975Z,101193.50
2018-08-06T02:49:55.302Z,101184.73
2018-08-06T02:52:01.043Z,101107.92
2018-08-06T02:54:06.175Z,101184.11
2018-08-06T02:56:11.446Z,101189.27
2018-08-06T02:58:17.282Z,101187.09
2018-08-06T03:00:22.673Z,101177.55
2018-08-06T03:02:28.021Z,101180.89
2018-08-06T03:04:33.267Z,101169.95
2018-08-06T03:06:38.408Z,101178.66
2018-08-06T03:08:43.672Z,101179.95
2018-08-06T03:10:48.892Z,101179.08
2018-08-06T03:12:53.755Z,101169.50
2018-08-06T03:14:58.604Z,101166.73
2018-08-06T03:17:03.753Z,101167.57
2018-08-06T03:19:08.957Z,101166.41
2018-08-06T03:21:14.077Z,101165.05
2018-08-06T03:23:19.329Z,101166.83
2018-08-06T03:25:24.630Z,101164.06
2018-08-06T03:27:29.798Z,101166.59
2018-08-06T03:29:34.944Z,101160.11
2018-08-06T03:31:39.930Z,101159.20
2018-08-06T03:33:45.313Z,101156.59
2018-08-06T03:35:50.354Z,101150.46
2018-08-06T03:37:55.475Z,101153.90
2018-08-06T03:40:00.333Z,101155.62
2018-08-06T03:42:05.510Z,101145.70
2018-08-06T03:44:10.763Z,101147.87
2018-08-06T03:46:15.747Z,101147.83
2018-08-06T03:48:21.457Z,101139.98
2018-08-06T03:50:26.484Z,101137.34
2018-08-06T03:52:31.733Z,101139.52
2018-08-06T03:54:36.850Z,101140.75
2018-08-06T03:56:41.843Z,101138.55
2018-08-06T03:58:47.036Z,101142.05
2018-08-06T04:00:52.028Z,101137.67
2018-08-06T04:02:56.877Z,101136.86
2018-08-06T04:05:01.996Z,101057.95
2018-08-06T04:07:07.133Z,101139.06
2018-08-06T04:09:12.170Z,101136.08
2018-08-06T04:11:17.138Z,101139.10
2018-08-06T04:13:22.123Z,101138.22
2018-08-06T04:15:27.969Z,101140.44
2018-08-06T04:17:32.910Z,101137.38
2018-08-06T04:19:37.836Z,101123.88
2018-08-06T04:21:42.756Z,101134.40
2018-08-06T04:23:47.687Z,101136.22
2018-08-06T04:25:52.536Z,101137.94
2018-08-06T04:27:57.464Z,101135.80
2018-08-06T04:30:03.356Z,101134.50
2018-08-06T04:32:08.321Z,101138.27
2018-08-06T04:34:13.172Z,101140.36
2018-08-06T04:36:18.085Z,101135.66
2018-08-06T04:38:23.004Z,101139.13
2018-08-06T04:40:27.916Z,101137.03
2018-08-06T04:42:32.678Z,101130.47
2018-08-06T04:44:37.448Z,101128.75
2018-08-06T04:46:42.363Z,101120.91
2018-08-06T04:48:48.307Z,101128.69
2018-08-06T04:50:53.756Z,101127.39
2018-08-06T04:52:58.689Z,101123.56
2018-08-06T04:55:03.479Z,101124.54
2018-08-06T04:57:08.402Z,101122.08
2018-08-06T04:59:13.330Z,101123.83
2018-08-06T05:01:18.271Z,101122.47
2018-08-06T05:03:23.380Z,101126.42
2018-08-06T05:05:28.042Z,101116.59
2018-08-06T05:07:33.073Z,101119.68
2018-08-06T05:09:41.006Z,101122.38
2018-08-06T05:11:46.218Z,101120.91
2018-08-06T05:13:51.166Z,101123.60
2018-08-06T05:15:56.186Z,101124.54
2018-08-06T05:18:01.251Z,101126.00
2018-08-06T05:20:06.799Z,101124.58
2018-08-06T05:22:12.014Z,101120.52
2018-08-06T05:24:17.189Z,101125.69
2018-08-06T05:26:22.231Z,101122.36
2018-08-06T05:28:27.267Z,101125.92
2018-08-06T05:30:32.079Z,101125.13
2018-08-06T05:32:37.056Z,101124.68
2018-08-06T05:34:42.630Z,101126.03
2018-08-06T05:36:47.708Z,101133.49
2018-08-06T05:38:54.076Z,101133.97
2018-08-06T05:40:58.765Z,101123.95
2018-08-06T05:43:03.835Z,101128.47
2018-08-06T05:45:10.211Z,101121.46
2018-08-06T05:47:15.146Z,101124.41
2018-08-06T05:49:19.978Z,101123.44
2018-08-06T05:51:24.729Z,101118.59
2018-08-06T05:53:29.466Z,101119.47
2018-08-06T05:55:34.143Z,101124.27
2018-08-06T05:57:39.121Z,101122.62
2018-08-06T05:59:43.866Z,101123.06
2018-08-06T06:01:48.796Z,101124.06
2018-08-06T06:03:53.709Z,101125.06
2018-08-06T06:05:58.453Z,101126.41
2018-08-06T06:08:03.232Z,101127.28
2018-08-06T06:10:10.396Z,101071.44
2018-08-06T06:12:15.318Z,101125.75
2018-08-06T06:14:20.311Z,101129.63
2018-08-06T06:16:25.209Z,101127.86
2018-08-06T06:18:30.160Z,101131.36
2018-08-06T06:20:34.989Z,101133.16
2018-08-06T06:22:40.125Z,101128.94
2018-08-06T06:24:44.884Z,101120.25
2018-08-06T06:26:49.671Z,101053.88
2018-08-06T06:28:54.496Z,101137.19
2018-08-06T06:30:59.571Z,101132.94
2018-08-06T06:33:04.382Z,101130.76
2018-08-06T06:35:09.287Z,101134.45
2018-08-06T06:37:14.027Z,101134.80
2018-08-06T06:39:18.914Z,101129.22
2018-08-06T06:41:23.815Z,101123.77
2018-08-06T06:43:28.763Z,101126.74
2018-08-06T06:45:33.800Z,101123.30
2018-08-06T06:47:38.639Z,101125.09
2018-08-06T06:49:43.407Z,101122.11
2018-08-06T06:51:48.294Z,101038.17
2018-08-06T06:53:53.356Z,101126.50
2018-08-06T06:55:58.190Z,101122.90
2018-08-06T06:58:03.411Z,101123.31
2018-08-06T07:00:09.549Z,101120.18
2018-08-06T07:02:14.478Z,101120.28
2018-08-06T07:04:19.305Z,101119.62
2018-08-06T07:06:24.440Z,101115.27
2018-08-06T07:08:29.237Z,101119.65
2018-08-06T07:10:34.137Z,101121.42
2018-08-06T07:12:39.088Z,101125.00
2018-08-06T07:14:43.937Z,101117.63
2018-08-06T07:16:48.870Z,101116.77
2018-08-06T07:18:54.201Z,101113.75
2018-08-06T07:20:59.011Z,101115.12
2018-08-06T07:23:03.912Z,101116.45
2018-08-06T07:25:10.874Z,101115.66
2018-08-06T07:27:15.683Z,101107.42
2018-08-06T07:29:20.448Z,101111.02
2018-08-06T07:31:25.649Z,101104.16
2018-08-06T07:33:30.450Z,101096.35
2018-08-06T07:35:35.273Z,101096.83
2018-08-06T07:37:40.625Z,101089.91
2018-08-06T07:39:45.405Z,101085.23
2018-08-06T07:41:50.277Z,101082.69
2018-08-06T07:43:55.252Z,101078.78
2018-08-06T07:46:00.198Z,101077.49
2018-08-06T07:48:05.473Z,101067.50
2018-08-06T07:50:13.539Z,101071.48
2018-08-06T07:52:18.483Z,101073.31
2018-08-06T07:54:23.309Z,101067.22
2018-08-06T07:56:28.068Z,101066.77
2018-08-06T07:58:32.876Z,101068.97
2018-08-06T08:00:38.833Z,101066.80
2018-08-06T08:02:43.815Z,101058.08
2018-08-06T08:04:49.086Z,101057.64
2018-08-06T08:06:54.016Z,101059.83
2018-08-06T08:08:58.840Z,101058.52
2018-08-06T08:11:03.622Z,101052.03
2018-08-06T08:13:08.556Z,101055.08
2018-08-06T08:15:18.401Z,101053.76
2018-08-06T08:17:23.269Z,101054.17
2018-08-06T08:19:28.133Z,101056.34
2018-08-06T08:21:33.600Z,101056.32
2018-08-06T08:23:38.536Z,101055.48
2018-08-06T08:25:43.243Z,101049.80
2018-08-06T08:27:48.142Z,101052.75
2018-08-06T08:29:52.916Z,101051.81
2018-08-06T08:31:57.714Z,101047.52
2018-08-06T08:34:02.627Z,100992.13
2018-08-06T08:36:07.647Z,101049.17
2018-08-06T08:38:12.537Z,101049.55
2018-08-06T08:40:19.388Z,101044.71
2018-08-06T08:42:24.246Z,101035.05
2018-08-06T08:44:29.230Z,101038.16
2018-08-06T08:46:34.204Z,101037.23
2018-08-06T08:48:39.036Z,101023.63
2018-08-06T08:50:43.789Z,101033.14
2018-08-06T08:52:48.754Z,101004.32
2018-08-06T08:54:53.880Z,101023.27
2018-08-06T08:56:58.784Z,101025.92
2018-08-06T08:59:03.785Z,101017.16
2018-08-06T09:01:08.656Z,101023.91
2018-08-06T09:03:13.511Z,101021.66
2018-08-06T09:05:18.843Z,101017.58
2018-08-06T09:07:23.725Z,101021.06
2018-08-06T09:09:28.633Z,101028.05
2018-08-06T09:11:33.801Z,101018.02
2018-08-06T09:13:38.869Z,101018.09
2018-08-06T09:15:43.637Z,101016.11
2018-08-06T09:17:48.544Z,101013.88
2018-08-06T09:19:53.413Z,101009.27
2018-08-06T09:21:58.120Z,101010.31
2018-08-06T09:24:03.527Z,101005.91
2018-08-06T09:26:08.687Z,101003.59
2018-08-06T09:28:13.506Z,101003.09
2018-08-06T09:30:19.860Z,101000.22
2018-08-06T09:32:25.975Z,100998.91
2018-08-06T09:34:30.701Z,100996.70
2018-08-06T09:36:35.494Z,100993.42
2018-08-06T09:38:40.231Z,100984.31
2018-08-06T09:40:45.029Z,100993.98
2018-08-06T09:42:50.355Z,100983.42
2018-08-06T09:44:55.295Z,100982.03
2018-08-06T09:47:00.292Z,100987.84
2018-08-06T09:49:05.729Z,100982.30
2018-08-06T09:51:10.474Z,100977.35
2018-08-06T09:53:15.292Z,100979.02
2018-08-06T09:55:24.900Z,100951.75
2018-08-06T09:57:29.829Z,100970.40
2018-08-06T09:59:34.690Z,100983.86
2018-08-06T10:01:44.941Z,100975.70
2018-08-06T10:03:49.912Z,100966.38
2018-08-06T10:05:54.965Z,100965.30
2018-08-06T10:07:59.730Z,100955.75
2018-08-06T10:10:06.094Z,100957.23
2018-08-06T10:12:11.340Z,100955.08
2018-08-06T10:14:16.231Z,100948.55
2018-08-06T10:16:21.136Z,100946.34
2018-08-06T10:18:26.002Z,100951.38
2018-08-06T10:20:30.785Z,100884.76
2018-08-06T10:22:35.723Z,100928.04
2018-08-06T10:24:45.175Z,100940.27
2018-08-06T10:26:50.475Z,100939.31
2018-08-06T10:28:57.641Z,100937.06
2018-08-06T10:31:02.762Z,100938.47
2018-08-06T10:33:07.697Z,100882.95
2018-08-06T10:35:13.553Z,100936.09
2018-08-06T10:37:18.630Z,100928.67
2018-08-06T10:39:23.746Z,100923.11
2018-08-06T10:41:30.416Z,100924.46
2018-08-06T10:43:35.505Z,100922.42
2018-08-06T10:45:40.665Z,100926.76
2018-08-06T10:47:45.490Z,100915.62
2018-08-06T10:49:51.236Z,100915.70
2018-08-06T10:51:56.612Z,100865.05
2018-08-06T10:54:02.159Z,100912.22
2018-08-06T10:56:07.164Z,100921.90
2018-08-06T10:58:12.125Z,100917.84
2018-08-06T11:00:21.164Z,100911.84
2018-08-06T11:02:26.090Z,100910.45
2018-08-06T11:04:31.062Z,100904.34
2018-08-06T11:06:35.971Z,100906.05
2018-08-06T11:08:40.858Z,100911.32
2018-08-06T11:10:47.536Z,100907.25
2018-08-06T11:12:53.564Z,100903.37
2018-08-06T11:15:00.358Z,100906.98
2018-08-06T11:17:05.303Z,100903.78
2018-08-06T11:19:10.664Z,100892.35
2018-08-06T11:21:15.957Z,100892.86
2018-08-06T11:23:21.052Z,100884.97
2018-08-06T11:25:26.036Z,100883.84
2018-08-06T11:27:32.040Z,100888.90
2018-08-06T11:29:36.959Z,100877.48
2018-08-06T11:31:41.752Z,100869.53
2018-08-06T11:33:46.644Z,100863.11
2018-08-06T11:35:51.538Z,100867.06
2018-08-06T11:37:56.468Z,100866.71
2018-08-06T11:40:01.216Z,100858.30
2018-08-06T11:42:06.424Z,100850.84
2018-08-06T11:44:11.368Z,100844.24
2018-08-06T11:46:17.615Z,100850.34
2018-08-06T11:48:23.691Z,100846.71
2018-08-06T11:50:28.490Z,100852.45
2018-08-06T11:52:33.294Z,100851.21
2018-08-06T11:54:38.638Z,100790.88
2018-08-06T11:56:43.509Z,100841.48
2018-08-06T11:58:49.083Z,100842.51
2018-08-06T12:00:53.848Z,100843.78
2018-08-06T12:02:58.673Z,100841.89
2018-08-06T12:05:03.476Z,100843.80
2018-08-06T12:07:08.327Z,100843.50
2018-08-06T12:09:13.161Z,100842.87
2018-08-06T12:11:18.814Z,100836.67
2018-08-06T12:13:23.944Z,100835.22
2018-08-06T12:15:28.661Z,100835.67
2018-08-06T12:17:33.497Z,100832.85
2018-08-06T12:19:38.544Z,100774.98
2018-08-06T12:21:43.565Z,100830.44
2018-08-06T12:23:48.383Z,100828.12
2018-08-06T12:25:53.426Z,100832.20
2018-08-06T12:27:58.313Z,100829.67
2018-08-06T12:30:03.237Z,100827.10
2018-08-06T12:32:08.175Z,100827.89
2018-08-06T12:34:12.991Z,100831.20
2018-08-06T12:36:19.220Z,100831.22
2018-08-06T12:38:25.253Z,100833.94
2018-08-06T12:40:30.386Z,100823.14
2018-08-06T12:42:35.486Z,100826.23
2018-08-06T12:44:40.417Z,100826.64
2018-08-06T12:46:45.236Z,100830.97
2018-08-06T12:48:50.161Z,100821.70
2018-08-06T12:50:55.513Z,100826.28
2018-08-06T12:53:00.644Z,100815.55
2018-08-06T12:55:07.304Z,100820.58
2018-08-06T12:57:12.412Z,100808.77
2018-08-06T12:59:17.507Z,100810.66
2018-08-06T13:01:24.339Z,100805.27
2018-08-06T13:03:29.254Z,100807.80
2018-08-06T13:05:34.371Z,100808.20
2018-08-06T13:07:39.610Z,100802.45
2018-08-06T13:09:44.902Z,100796.03
2018-08-06T13:11:49.876Z,100797.66
2018-08-06T13:13:54.889Z,100791.39
2018-08-06T13:16:00.033Z,100790.12
2018-08-06T13:18:05.772Z,100788.27
2018-08-06T13:20:10.737Z,100786.61
2018-08-06T13:22:15.878Z,100779.53
2018-08-06T13:24:20.782Z,100783.26
2018-08-06T13:26:25.946Z,100776.42
2018-08-06T13:28:30.899Z,100780.27
2018-08-06T13:30:35.930Z,100785.11
2018-08-06T13:32:41.276Z,100772.72
2018-08-06T13:34:47.933Z,100769.80
2018-08-06T13:36:52.966Z,100779.75
2018-08-06T13:38:57.728Z,100767.48
2018-08-06T13:41:02.521Z,100715.16
2018-08-06T13:43:07.736Z,100764.00
2018-08-06T13:45:14.107Z,100764.78
2018-08-06T13:47:19.260Z,100760.95
2018-08-06T13:49:24.513Z,100763.08
2018-08-06T13:51:29.684Z,100704.09
2018-08-06T13:53:36.009Z,100751.73
2018-08-06T13:55:41.271Z,100751.39
2018-08-06T13:57:46.405Z,100746.09
2018-08-06T13:59:52.215Z,100747.11
2018-08-06T14:01:57.117Z,100740.78
2018-08-06T14:04:02.023Z,100742.45
2018-08-06T14:06:07.051Z,100736.52
2018-08-06T14:08:12.029Z,100736.75
2018-08-06T14:10:17.176Z,100732.27
2018-08-06T14:12:22.111Z,100733.13
2018-08-06T14:14:26.894Z,100733.53
2018-08-06T14:16:31.810Z,100725.06
2018-08-06T14:18:36.671Z,100721.59
2018-08-06T14:20:42.365Z,100726.67
2018-08-06T14:22:47.242Z,100721.84
2018-08-06T14:24:52.345Z,100718.37
2018-08-06T14:26:57.588Z,100718.61
2018-08-06T14:29:03.988Z,100719.75
2018-08-06T14:31:08.958Z,100719.58
2018-08-06T14:33:14.053Z,100717.12
2018-08-06T14:35:18.919Z,100713.16
2018-08-06T14:37:23.806Z,100700.67
2018-08-06T14:39:28.633Z,100703.59
2018-08-06T14:41:33.639Z,100698.84
2018-08-06T14:43:38.698Z,100701.42
2018-08-06T14:45:43.551Z,100697.73
2018-08-06T14:47:48.573Z,100693.34
2018-08-06T14:49:53.866Z,100692.08
2018-08-06T14:51:59.011Z,100688.67
2018-08-06T14:54:04.812Z,100689.30
2018-08-06T14:56:09.802Z,100634.47
2018-08-06T14:58:17.409Z,100678.99
2018-08-06T15:00:23.400Z,100686.55
2018-08-06T15:02:28.270Z,100688.73
2018-08-06T15:04:33.158Z,100685.39
2018-08-06T15:06:37.967Z,100677.16
2018-08-06T15:08:42.845Z,100681.07
2018-08-06T15:10:47.751Z,100678.54
2018-08-06T15:12:52.650Z,100666.25
2018-08-06T15:14:57.460Z,100675.30
2018-08-06T15:17:02.410Z,100672.27
2018-08-06T15:19:07.643Z,100667.89
2018-08-06T15:21:12.385Z,100671.34
2018-08-06T15:23:17.178Z,100670.92
2018-08-06T15:25:23.955Z,100672.27
2018-08-06T15:27:28.875Z,100663.78
2018-08-06T15:29:33.690Z,100654.56
2018-08-06T15:31:38.969Z,100652.18
2018-08-06T15:33:44.511Z,100661.52
2018-08-06T15:35:49.334Z,100655.35
2018-08-06T15:37:54.185Z,100649.31
2018-08-06T15:39:59.036Z,100647.39
2018-08-06T15:42:03.829Z,100645.73
2018-08-06T15:44:08.616Z,100582.59
2018-08-06T15:46:13.487Z,100624.39
2018-08-06T15:48:20.550Z,100636.62
2018-08-06T15:50:32.186Z,100633.36
2018-08-06T15:52:37.821Z,100634.09
2018-08-06T15:54:42.640Z,100586.69
2018-08-06T15:56:47.675Z,100629.05
2018-08-06T15:58:52.407Z,100628.88
2018-08-06T16:00:57.360Z,100628.92
2018-08-06T16:03:02.271Z,100632.36
2018-08-06T16:05:09.094Z,100624.90
2018-08-06T16:07:15.756Z,100619.72
2018-08-06T16:09:23.223Z,100618.58
2018-08-06T16:11:30.844Z,100620.48
2018-08-06T16:13:36.011Z,100620.07
2018-08-06T16:15:41.028Z,100620.30
2018-08-06T16:17:46.370Z,100619.20
2018-08-06T16:19:51.443Z,100620.52
2018-08-06T16:21:56.326Z,100624.11
2018-08-06T16:24:01.172Z,100626.05
2018-08-06T16:26:06.044Z,100617.42
2018-08-06T16:28:11.104Z,100613.22
2018-08-06T16:30:23.755Z,100611.41
2018-08-06T16:32:28.652Z,100616.14
2018-08-06T16:34:33.506Z,100557.16
2018-08-06T16:36:39.434Z,100613.38
2018-08-06T16:38:44.947Z,100607.45
2018-08-06T16:40:50.188Z,100604.75
2018-08-06T16:42:56.319Z,100603.28
2018-08-06T16:45:01.336Z,100592.09
2018-08-06T16:47:06.250Z,100586.34
2018-08-06T16:49:10.991Z,100592.88
2018-08-06T16:51:15.817Z,100591.85
2018-08-06T16:53:21.603Z,100588.17
2018-08-06T16:55:27.378Z,100589.02
2018-08-06T16:57:35.605Z,100586.36
2018-08-06T16:59:40.554Z,100556.55
2018-08-06T17:01:46.249Z,100582.52
2018-08-06T17:03:52.727Z,100585.41
2018-08-06T17:05:57.686Z,100586.88
2018-08-06T17:08:05.753Z,100586.28
2018-08-06T17:10:15.072Z,100584.28
2018-08-06T17:12:20.129Z,100585.25
2018-08-06T17:14:25.011Z,100585.48
2018-08-06T17:16:30.002Z,100580.06
2018-08-06T17:18:34.909Z,100584.07
2018-08-06T17:20:40.171Z,100584.09
2018-08-06T17:22:46.418Z,100578.55
2018-08-06T17:24:51.555Z,100585.15
2018-08-06T17:26:56.775Z,100582.02
2018-08-06T17:29:02.138Z,100582.40
2018-08-06T17:31:07.232Z,100574.99
2018-08-06T17:33:12.189Z,100577.34
2018-08-06T17:35:17.433Z,100579.33
2018-08-06T17:37:22.383Z,100580.84
2018-08-06T17:39:27.343Z,100577.14
2018-08-06T17:41:32.236Z,100576.70
2018-08-06T17:43:37.080Z,100574.52
2018-08-06T17:45:41.986Z,100578.49
2018-08-06T17:47:47.168Z,100571.11
2018-08-06T17:49:52.081Z,100569.75
2018-08-06T17:51:57.289Z,100566.42
2018-08-06T17:54:03.234Z,100569.55
2018-08-06T17:56:08.133Z,100561.61
2018-08-06T17:58:13.697Z,100558.09
2018-08-06T18:00:19.975Z,100554.88
2018-08-06T18:02:25.017Z,100554.98
2018-08-06T18:04:29.998Z,100550.56
2018-08-06T18:06:34.626Z,100551.05
2018-08-06T18:08:40.609Z,100544.98
2018-08-06T18:10:46.063Z,100546.77
2018-08-06T18:12:51.129Z,100546.08
2018-08-06T18:14:56.853Z,100544.63
2018-08-06T18:17:02.501Z,100542.96
2018-08-06T18:19:07.682Z,100548.22
2018-08-06T18:21:12.659Z,100554.06
2018-08-06T18:23:19.147Z,100550.26
2018-08-06T18:25:25.664Z,100543.09
2018-08-06T18:27:30.876Z,100543.15
2018-08-06T18:29:35.921Z,100439.30
2018-08-06T18:31:44.235Z,100541.91
2018-08-06T18:33:49.712Z,100545.93
2018-08-06T18:35:55.470Z,100547.16
2018-08-06T18:38:00.350Z,100550.09
2018-08-06T18:40:05.692Z,100552.34
2018-08-06T18:42:10.860Z,100550.47
2018-08-06T18:44:16.472Z,100547.73
2018-08-06T18:46:21.675Z,100551.22
2018-08-06T18:48:27.492Z,100489.72
2018-08-06T18:50:32.475Z,100551.42
2018-08-06T18:52:37.852Z,100544.79
2018-08-06T18:54:43.412Z,100546.70
2018-08-06T18:56:50.234Z,100544.39
2018-08-06T18:58:56.841Z,100543.28
2018-08-06T19:01:02.052Z,100547.91
2018-08-06T19:03:08.879Z,100548.63
2018-08-06T19:05:14.210Z,100555.08
2018-08-06T19:07:19.277Z,100557.98
2018-08-06T19:09:28.267Z,100551.22
2018-08-06T19:11:35.465Z,100548.86
2018-08-06T19:13:45.496Z,100548.24
2018-08-06T19:15:50.512Z,100549.90
2018-08-06T19:18:01.188Z,100548.50
2018-08-06T19:22:23.129Z,100554.40
2018-08-06T19:24:35.892Z,100554.64
2018-08-06T19:26:42.319Z,100550.99
2018-08-06T19:28:49.467Z,100552.63
2018-08-06T19:31:00.185Z,100555.02
2018-08-06T19:33:07.311Z,100552.23
2018-08-06T19:35:13.380Z,100558.08
2018-08-06T19:37:23.618Z,100556.08
2018-08-06T19:39:28.943Z,100556.33
2018-08-06T19:41:34.495Z,100559.17
2018-08-06T19:43:40.124Z,100555.01
2018-08-06T19:45:45.272Z,100560.92
2018-08-06T19:47:50.289Z,100552.77
2018-08-06T19:51:04.045Z,100562.63
2018-08-06T19:53:15.999Z,100551.84
2018-08-06T19:55:26.555Z,100560.69
2018-08-06T19:57:33.375Z,100492.84
2018-08-06T19:59:39.676Z,100562.67
2018-08-06T20:01:44.979Z,100554.47
2018-08-06T20:03:50.241Z,100556.80
2018-08-06T20:05:55.455Z,100545.66
2018-08-06T20:08:00.471Z,100556.26
2018-08-06T20:10:06.658Z,100553.80
2018-08-06T20:12:11.887Z,100556.92
2018-08-06T20:14:17.114Z,100547.89
2018-08-06T20:16:22.443Z,100554.88
2018-08-06T20:18:27.977Z,100552.34
2018-08-06T20:20:33.046Z,100559.86
2018-08-06T20:22:38.175Z,100554.95
2018-08-06T20:24:43.460Z,100562.35
2018-08-06T20:26:48.490Z,100562.03
2018-08-06T20:28:53.712Z,100562.63
2018-08-06T20:30:59.029Z,100563.59
2018-08-06T20:33:05.039Z,100552.88
2018-08-06T20:35:14.113Z,100552.50
2018-08-06T20:37:19.887Z,100553.55
2018-08-06T20:39:25.129Z,100557.17
2018-08-06T20:41:30.109Z,100558.99
2018-08-06T20:43:36.102Z,100555.56
2018-08-06T20:45:42.132Z,100550.81
2018-08-06T20:47:51.229Z,100549.53
2018-08-06T20:49:56.624Z,100553.95
2018-08-06T20:52:01.709Z,100542.75
2018-08-06T20:54:06.671Z,100550.58
2018-08-06T20:56:11.647Z,100554.24
2018-08-06T20:58:16.548Z,100553.02
2018-08-06T21:00:23.811Z,100557.46
2018-08-06T21:02:29.012Z,100551.88
2018-08-06T21:04:33.916Z,100552.80
2018-08-06T21:06:39.190Z,100552.41
2018-08-06T21:08:44.185Z,100492.30
2018-08-06T21:10:49.189Z,100556.09
2018-08-06T21:12:54.425Z,100555.33
2018-08-06T21:15:00.244Z,100547.09
2018-08-06T21:17:05.348Z,100535.43
2018-08-06T21:19:11.056Z,100553.30
2018-08-06T21:21:17.661Z,100546.80
2018-08-06T21:23:22.616Z,100547.24
2018-08-06T21:25:27.755Z,100544.22
2018-08-06T21:27:32.952Z,100543.83
2018-08-06T21:29:38.002Z,100548.23
2018-08-06T21:31:43.147Z,100525.36
2018-08-06T21:33:48.402Z,100540.93
2018-08-06T21:35:53.466Z,100476.45
2018-08-06T21:37:58.570Z,100521.99
2018-08-06T21:40:05.164Z,100543.67
2018-08-06T21:42:10.499Z,100542.84
2018-08-06T21:44:15.802Z,100539.84
2018-08-06T21:46:20.721Z,100544.64
2018-08-06T21:48:26.056Z,100544.64
2018-08-06T21:50:30.872Z,100470.94
2018-08-06T21:52:35.945Z,100546.47
2018-08-06T21:54:40.844Z,100548.27
2018-08-06T21:56:46.064Z,100543.47
2018-08-06T21:58:50.899Z,100541.31
2018-08-06T22:00:55.787Z,100545.13
2018-08-06T22:03:00.738Z,100546.51
2018-08-06T22:05:07.002Z,100542.97
2018-08-06T22:07:11.853Z,100540.86
2018-08-06T22:09:16.938Z,100534.86
2018-08-06T22:11:22.011Z,100530.61
2018-08-06T22:13:26.759Z,100538.07
2018-08-06T22:15:32.217Z,100529.85
2018-08-06T22:17:37.738Z,100532.05
2018-08-06T22:19:42.555Z,100533.41
2018-08-06T22:21:47.469Z,100534.75
2018-08-06T22:23:52.003Z,100529.95
2018-08-06T22:25:56.933Z,100527.76
2018-08-06T22:28:02.016Z,100514.70
2018-08-06T22:30:09.244Z,100529.47
2018-08-06T22:32:14.446Z,100527.31
2018-08-06T22:34:19.157Z,100528.17
2018-08-06T22:36:24.072Z,100526.46
2018-08-06T22:38:28.990Z,100524.73
2018-08-06T22:40:34.005Z,100523.41
2018-08-06T22:42:39.420Z,100520.38
2018-08-06T22:44:44.209Z,100519.46
2018-08-06T22:46:49.045Z,100513.34
2018-08-06T22:48:53.910Z,100506.81
2018-08-06T22:50:58.664Z,100510.35
2018-08-06T22:53:03.867Z,100510.33
2018-08-06T22:55:10.573Z,100516.02
2018-08-06T22:57:15.503Z,100515.17
2018-08-06T22:59:20.442Z,100513.45
2018-08-06T23:01:25.359Z,100510.48
2018-08-06T23:03:30.253Z,100500.04
2018-08-06T23:05:35.212Z,100500.92
2018-08-06T23:07:40.200Z,100500.48
2018-08-06T23:09:45.104Z,100489.58
2018-08-06T23:11:50.066Z,100488.24
2018-08-06T23:13:55.161Z,100489.82
2018-08-06T23:16:00.026Z,100489.78
2018-08-06T23:18:05.008Z,100486.22
2018-08-06T23:20:10.340Z,100492.77
2018-08-06T23:22:15.210Z,100488.41
2018-08-06T23:24:20.177Z,100485.81
2018-08-06T23:26:24.929Z,100487.97
2018-08-06T23:28:29.941Z,100481.87
2018-08-06T23:30:34.909Z,100410.85
2018-08-06T23:32:40.111Z,100486.71
2018-08-06T23:34:44.966Z,100481.91
2018-08-06T23:36:49.778Z,100482.83
2018-08-06T23:38:54.771Z,100475.87
2018-08-06T23:40:59.725Z,100475.42
2018-08-06T23:43:05.142Z,100476.78
2018-08-06T23:45:14.342Z,100464.21
2018-08-06T23:47:19.166Z,100471.58
2018-08-06T23:49:23.961Z,100470.70
2018-08-06T23:51:28.757Z,100474.19
2018-08-06T23:53:33.587Z,100469.85